Time;durP1;ratioP1;P1;durP2;ratioP2;P2;SDS_P1;SDS_P2;PMS_P1;PMS_P2;Temp;Humidity;BMP_temperature;BMP_pressure;BME280_temperature;BME280_humidity;BME280_pressure;Samples;Min_cycle;Max_cycle;Signal;HPM_P1;HPM_P2
2022/04/17 00:02:23;;;;;;;;;;;;;;;20.13;43.60;101008.18;104383;1312;71507;-82
2022/04/17 00:04:57;;;;;;;;;;;;;;;20.12;43.65;101008.75;104351;1312;75234;-82
2022/04/17 00:07:45;;;;;;;;;;;;;;;20.12;43.54;101007.16;104406;1312;61180;-81
2022/04/17 00:10:30;;;;;;;;;;;;;;;20.12;43.56;101019.67;104360;1312;60508;-84
2022/04/17 00:13:14;;;;;;;;;;;;;;;20.12;43.81;101022.73;104127;1318;72842;-83
2022/04/17 00:16:01;;;;;;;;;;;;;;;20.11;43.64;101023.64;104116;1318;74935;-81
2022/04/17 00:18:26;;;;;;;;;;;;;;;20.11;43.55;101019.90;104123;1318;60646;-82
2022/04/17 00:21:23;;;;;;;;;;;;;;;;;;;;;
2022/04/17 00:23:47;;;;;;;;;;;;;;;20.11;43.65;101013.13;104122;1316;73641;-86
2022/04/17 00:26:40;;;;;;;;;;;;;;;20.11;43.56;101016.69;104114;1318;73878;-82
2022/04/17 00:29:06;;;;;;;;;;;;;;;20.10;43.56;101019.77;104122;1318;60396;-83
2022/04/17 00:31:39;;;;;;;;;;;;;;;20.10;43.46;101020.14;104119;1317;60601;-86
2022/04/17 00:34:11;;;;;;;;;;;;;;;20.09;43.51;101021.45;104115;1318;72767;-82
2022/04/17 00:36:45;;;;;;;;;;;;;;;20.09;43.51;101025.70;104118;1318;74059;-80
2022/04/17 00:39:19;;;;;;;;;;;;;;;20.09;43.53;101023.97;104159;1315;60456;-88
2022/04/17 00:41:54;;;;;;;;;;;;;;;20.09;43.57;101030.73;104330;1315;60525;-82
2022/04/17 00:44:32;;;;;;;;;;;;;;;;;;;;;
2022/04/17 00:47:24;;;;;;;;;;;;;;;20.08;43.37;101027.59;104252;1314;74240;-86
2022/04/17 00:49:59;;;;;;;;;;;;;;;20.08;43.44;101030.66;104420;1303;60572;-86
2022/04/17 00:52:43;;;;;;;;;;;;;;;20.07;43.48;101023.89;104854;1303;60577;-78
2022/04/17 00:55:32;;;;;;;;;;;;;;;20.07;43.37;101017.45;104865;1303;73721;-85
2022/04/17 00:58:18;;;;;;;;;;;;;;;20.07;43.42;101023.55;104866;1303;75236;-84
2022/04/17 01:01:03;;;;;;;;;;;;;;;20.07;43.40;101030.69;104746;1306;61272;-84
2022/04/17 01:03:31;;;;;;;;;;;;;;;20.07;43.43;101027.84;104720;1306;61457;-85
2022/04/17 01:06:02;;;;;;;;;;;;;;;20.07;43.47;101030.69;104848;1303;74500;-82
2022/04/17 01:08:44;;;;;;;;;;;;;;;;;;;;;
2022/04/17 01:11:48;;;;;;;;;;;;;;;20.06;43.28;101037.52;104893;1303;61055;-84
2022/04/17 01:14:35;;;;;;;;;;;;;;;20.06;43.41;101043.79;104837;1303;61598;-85
2022/04/17 01:17:32;;;;;;;;;;;;;;;;;;;;;
2022/04/17 01:20:00;;;;;;;;;;;;;;;20.06;43.37;101042.17;104791;1303;74986;-83
2022/04/17 01:28:43;;;;;;;;;;;;;;;20.06;43.48;101047.39;104834;1303;73047;-83
2022/04/17 01:31:43;;;;;;;;;;;;;;;20.06;43.37;101040.98;104776;1303;75367;-82
2022/04/17 01:34:24;;;;;;;;;;;;;;;;;;;;;
2022/04/17 01:37:14;;;;;;;;;;;;;;;20.05;43.43;101052.59;104886;1303;61287;-85
2022/04/17 01:39:52;;;;;;;;;;;;;;;20.05;43.28;101053.35;104849;1303;73788;-84
2022/04/17 01:42:46;;;;;;;;;;;;;;;20.05;43.23;101053.36;104831;1303;75462;-83
2022/04/17 01:45:33;;;;;;;;;;;;;;;;;;;;;
2022/04/17 01:48:08;;;;;;;;;;;;;;;20.05;43.32;101059.98;104883;1302;60436;-83
2022/04/17 01:50:57;;;;;;;;;;;;;;;;;;;;;
2022/04/17 01:53:32;;;;;;;;;;;;;;;;;;;;;
2022/04/17 01:56:27;;;;;;;;;;;;;;;20.04;43.20;101070.55;104887;1303;60561;-82
2022/04/17 01:59:04;;;;;;;;;;;;;;;20.04;43.35;101077.53;104855;1303;60340;-82
2022/04/17 02:02:10;;;;;;;;;;;;;;;20.03;43.23;101076.52;104837;1303;71485;-81
2022/04/17 02:04:49;;;;;;;;;;;;;;;20.03;43.23;101073.30;104881;1303;74861;-80
2022/04/17 02:07:45;;;;;;;;;;;;;;;20.02;43.10;101080.14;104789;1306;61710;-81
2022/04/17 02:10:19;;;;;;;;;;;;;;;20.02;43.25;101078.90;104899;1303;60440;-82
2022/04/17 02:12:48;;;;;;;;;;;;;;;20.02;43.19;101070.48;104878;1303;73767;-81
2022/04/17 02:15:37;;;;;;;;;;;;;;;20.02;43.15;101071.77;104702;1306;73908;-82
2022/04/17 02:18:23;;;;;;;;;;;;;;;;;;;;;
2022/04/17 02:21:17;;;;;;;;;;;;;;;20.01;43.21;101074.69;104871;1303;60570;-84
2022/04/17 02:23:59;;;;;;;;;;;;;;;;;;;;;
2022/04/17 02:26:43;;;;;;;;;;;;;;;20.00;43.02;101081.50;104900;1303;73388;-84
2022/04/17 02:29:09;;;;;;;;;;;;;;;20.00;43.08;101089.73;104848;1303;61369;-82
2022/04/17 02:31:37;;;;;;;;;;;;;;;20.00;43.23;101077.77;104896;1302;60507;-81
2022/04/17 02:34:26;;;;;;;;;;;;;;;19.99;42.96;101083.19;104285;1315;70497;-83
2022/04/17 02:37:24;;;;;;;;;;;;;;;19.99;42.90;101083.55;104288;1314;75142;-82
2022/04/17 02:40:08;;;;;;;;;;;;;;;19.99;42.85;101076.41;104291;1315;61438;-82
2022/04/17 02:42:54;;;;;;;;;;;;;;;19.98;43.02;101080.55;104276;1315;60345;-87
2022/04/17 02:45:49;;;;;;;;;;;;;;;19.98;42.92;101082.51;104210;1314;73886;-84
2022/04/17 02:48:35;;;;;;;;;;;;;;;19.98;42.94;101086.09;104313;1314;75143;-88
2022/04/17 02:54:08;;;;;;;;;;;;;;;19.99;42.99;101090.19;104037;1318;60881;-78
2022/04/17 02:56:53;;;;;;;;;;;;;;;;;;;;;
2022/04/17 02:59:38;;;;;;;;;;;;;;;19.98;42.94;101030.56;104038;1318;74888;-79
2022/04/17 03:08:33;;;;;;;;;;;;;;;19.97;42.79;101026.34;103594;1318;71764;-81
2022/04/17 03:11:19;;;;;;;;;;;;;;;19.98;42.88;101053.09;103725;1315;74039;-85
2022/04/17 03:13:56;;;;;;;;;;;;;;;19.97;42.72;101056.48;104432;1312;60396;-83
2022/04/17 03:16:45;;;;;;;;;;;;;;;19.97;42.85;101065.28;104254;1312;60312;-81
2022/04/17 03:19:14;;;;;;;;;;;;;;;19.96;42.76;101070.50;104410;1312;73104;-83
2022/04/17 03:21:42;;;;;;;;;;;;;;;19.97;42.75;101073.52;104409;1311;74326;-83
2022/04/17 03:24:18;;;;;;;;;;;;;;;;;;;;;
2022/04/17 03:27:11;;;;;;;;;;;;;;;19.96;42.79;101080.00;104159;1315;60398;-81
2022/04/17 03:30:00;;;;;;;;;;;;;;;;;;;;;
2022/04/17 03:32:43;;;;;;;;;;;;;;;19.95;42.77;101102.02;104355;1312;74043;-83
2022/04/17 03:35:18;;;;;;;;;;;;;;;19.95;42.81;101104.89;104365;1312;60680;-80
2022/04/17 03:37:56;;;;;;;;;;;;;;;19.95;42.81;101109.36;104383;1311;60467;-81
2022/04/17 03:40:49;;;;;;;;;;;;;;;19.94;42.77;101094.23;104315;1312;73918;-82
2022/04/17 03:43:35;;;;;;;;;;;;;;;19.93;42.67;101092.48;104374;1312;75108;-81
2022/04/17 03:46:11;;;;;;;;;;;;;;;19.93;42.76;101102.28;104386;1312;61193;-81
2022/04/17 03:48:48;;;;;;;;;;;;;;;19.93;42.73;101108.22;104394;1312;60645;-82
2022/04/17 03:51:19;;;;;;;;;;;;;;;19.92;42.56;101111.11;104400;1312;72787;-83
2022/04/17 03:54:26;;;;;;;;;;;;;;;19.92;42.67;101118.80;104371;1312;75311;-82
2022/04/17 03:57:08;;;;;;;;;;;;;;;19.92;42.73;101113.80;104396;1312;61135;-81
2022/04/17 03:59:54;;;;;;;;;;;;;;;19.92;42.67;101111.67;104409;1312;60507;-85
2022/04/17 04:02:30;;;;;;;;;;;;;;;19.91;42.58;101107.42;104416;1312;73653;-85
2022/04/17 04:05:26;;;;;;;;;;;;;;;19.91;42.56;101108.33;104360;1312;75480;-84
2022/04/17 04:08:06;;;;;;;;;;;;;;;19.91;42.71;101114.77;104423;1312;60344;-87
2022/04/17 04:11:05;;;;;;;;;;;;;;;19.90;42.60;101120.52;104052;1318;60528;-79
2022/04/17 04:13:51;;;;;;;;;;;;;;;19.90;42.57;101142.29;104072;1318;73815;-83
2022/04/17 04:16:36;;;;;;;;;;;;;;;;;;;;;
2022/04/17 04:19:30;;;;;;;;;;;;;;;19.90;42.51;101142.14;104090;1318;60699;-82
2022/04/17 04:22:15;;;;;;;;;;;;;;;;;;;;;
2022/04/17 04:25:10;;;;;;;;;;;;;;;19.90;42.53;101135.02;103847;1318;72854;-82
2022/04/17 04:30:46;;;;;;;;;;;;;;;19.89;42.57;101126.67;103856;1318;60473;-85
2022/04/17 04:33:36;;;;;;;;;;;;;;;;;;;;;
2022/04/17 04:36:27;;;;;;;;;;;;;;;19.88;42.48;101123.52;103805;1318;72830;-85
2022/04/17 04:39:02;;;;;;;;;;;;;;;19.87;42.50;101127.65;104076;1317;73911;-82
2022/04/17 04:41:34;;;;;;;;;;;;;;;19.88;42.51;101128.73;103840;1318;61194;-77
2022/04/17 04:44:18;;;;;;;;;;;;;;;19.87;42.50;101141.41;104300;1315;61889;-82
2022/04/17 04:46:54;;;;;;;;;;;;;;;;;;;;;
2022/04/17 04:49:40;;;;;;;;;;;;;;;;;;;;;
2022/04/17 04:52:15;;;;;;;;;;;;;;;19.86;42.33;101150.77;104704;1306;60411;-82
2022/04/17 04:54:54;;;;;;;;;;;;;;;19.86;42.53;101153.61;104718;1306;60874;-82
2022/04/17 04:57:48;;;;;;;;;;;;;;;19.86;42.47;101149.52;104726;1307;72795;-82
2022/04/17 05:00:24;;;;;;;;;;;;;;;;;;;;;
2022/04/17 05:03:35;;;;;;;;;;;;;;;;;;;;;
2022/04/17 05:06:09;;;;;;;;;;;;;;;19.86;42.45;101150.61;104247;1314;61045;-83
2022/04/17 05:08:55;;;;;;;;;;;;;;;19.85;42.37;101145.84;103913;1314;74463;-84
2022/04/17 05:12:01;;;;;;;;;;;;;;;19.85;42.52;101148.69;104127;1314;75545;-85
2022/04/17 05:14:46;;;;;;;;;;;;;;;19.86;42.31;101146.88;104165;1314;61564;-82
2022/04/17 05:17:37;;;;;;;;;;;;;;;19.85;42.52;101147.63;103547;1320;60515;-82
2022/04/17 05:20:09;;;;;;;;;;;;;;;19.85;42.58;101144.40;103622;1319;74260;-83
2022/04/17 05:23:03;;;;;;;;;;;;;;;19.85;42.53;101147.08;103418;1319;75411;-81
2022/04/17 05:25:49;;;;;;;;;;;;;;;19.85;42.39;101146.75;103420;1319;61355;-78
2022/04/17 05:28:27;;;;;;;;;;;;;;;19.85;42.42;101150.70;103641;1319;60630;-83
2022/04/17 05:31:11;;;;;;;;;;;;;;;19.85;42.37;101156.41;103622;1319;72848;-84
2022/04/17 05:33:53;;;;;;;;;;;;;;;19.85;42.43;101155.70;103622;1319;74820;-81
2022/04/17 05:36:39;;;;;;;;;;;;;;;19.84;42.26;101163.05;103421;1319;60426;-83
2022/04/17 05:39:19;;;;;;;;;;;;;;;19.85;42.43;101163.56;103644;1319;60919;-81
2022/04/17 05:42:21;;;;;;;;;;;;;;;19.84;42.42;101154.64;103683;1318;74322;-84
2022/04/17 05:44:50;;;;;;;;;;;;;;;19.84;42.33;101150.73;103790;1318;73837;-82
2022/04/17 05:47:27;;;;;;;;;;;;;;;19.84;42.18;101151.61;104095;1318;59987;-82
2022/04/17 05:50:05;;;;;;;;;;;;;;;19.84;42.24;101150.94;104087;1317;60463;-82
2022/04/17 05:53:14;;;;;;;;;;;;;;;19.83;42.24;101154.73;103935;1316;72823;-82
2022/04/17 05:55:42;;;;;;;;;;;;;;;19.83;42.20;101159.36;104314;1312;75326;-80
2022/04/17 05:58:11;;;;;;;;;;;;;;;19.83;42.26;101157.95;104281;1312;60380;-83
2022/04/17 06:00:39;;;;;;;;;;;;;;;19.83;42.22;101164.75;104295;1312;60751;-85
2022/04/17 06:03:36;;;;;;;;;;;;;;;19.82;42.13;101164.23;103426;1319;71434;-83
2022/04/17 06:06:34;;;;;;;;;;;;;;;19.82;42.21;101166.02;103676;1319;74923;-84
2022/04/17 06:12:11;;;;;;;;;;;;;;;19.82;42.29;101171.75;102350;1334;60455;-83
2022/04/17 06:15:21;;;;;;;;;;;;;;;19.82;42.33;101168.36;102445;1333;74039;-82
2022/04/17 06:17:58;;;;;;;;;;;;;;;19.82;42.29;101175.31;102343;1335;74160;-84
2022/04/17 06:21:15;;;;;;;;;;;;;;;19.82;42.36;101181.59;102512;1332;60410;-80
2022/04/17 06:23:52;;;;;;;;;;;;;;;19.82;42.27;101188.53;102591;1332;61779;-79
2022/04/17 06:26:37;;;;;;;;;;;;;;;19.82;42.29;101194.39;102518;1331;74486;-85
2022/04/17 06:29:36;;;;;;;;;;;;;;;19.82;42.29;101191.77;102562;1332;74030;-81
2022/04/17 06:32:07;;;;;;;;;;;;;;;19.82;42.31;101195.86;102089;1337;61191;-84
2022/04/17 06:35:15;;;;;;;;;;;;;;;19.81;42.27;101201.09;101986;1335;60511;-81
2022/04/17 06:38:02;;;;;;;;;;;;;;;19.82;42.25;101205.90;102138;1335;71602;-82
2022/04/17 06:40:44;;;;;;;;;;;;;;;;;;;;;
2022/04/17 06:43:17;;;;;;;;;;;;;;;19.81;42.28;101208.27;102585;1329;60433;-82
2022/04/17 06:46:05;;;;;;;;;;;;;;;;;;;;;
2022/04/17 06:48:51;;;;;;;;;;;;;;;19.81;42.24;101222.38;98945;1315;5846473;-81
2022/04/17 06:51:36;;;;;;;;;;;;;;;19.80;42.17;101225.24;103842;1318;72889;-81
2022/04/17 06:54:18;;;;;;;;;;;;;;;19.80;42.01;101223.46;103821;1317;73805;-85
2022/04/17 06:56:54;;;;;;;;;;;;;;;19.80;42.07;101232.04;103835;1317;60602;-82
2022/04/17 07:00:22;;;;;;;;;;;;;;;19.79;42.32;101229.21;103843;1318;60277;-82
2022/04/17 07:03:09;;;;;;;;;;;;;;;19.79;42.14;101239.02;102877;1325;73069;-82
2022/04/17 07:05:46;;;;;;;;;;;;;;;19.79;42.08;101235.48;102867;1324;73919;-84
2022/04/17 07:08:19;;;;;;;;;;;;;;;19.79;42.10;101242.83;102900;1325;60334;-82
2022/04/17 07:10:45;;;;;;;;;;;;;;;19.79;42.11;101242.65;103620;1319;60638;-83
2022/04/17 07:13:32;;;;;;;;;;;;;;;19.78;42.21;101243.73;103344;1320;73758;-82
2022/04/17 07:16:35;;;;;;;;;;;;;;;19.79;42.12;101244.45;103432;1319;72975;-82
2022/04/17 07:19:16;;;;;;;;;;;;;;;19.78;42.00;101254.31;103641;1319;61206;-79
2022/04/17 07:22:18;;;;;;;;;;;;;;;19.77;42.15;101253.08;103366;1320;60998;-85
2022/04/17 07:25:06;;;;;;;;;;;;;;;19.78;41.96;101259.50;103662;1318;72801;-87
2022/04/17 07:28:14;;;;;;;;;;;;;;;;;;;;;
2022/04/17 07:30:59;;;;;;;;;;;;;;;19.77;42.04;101255.23;103776;1316;60378;-82
2022/04/17 07:34:19;;;;;;;;;;;;;;;19.77;42.00;101255.41;104327;1306;61540;-82
2022/04/17 07:36:54;;;;;;;;;;;;;;;;;;;;;
2022/04/17 07:39:32;;;;;;;;;;;;;;;19.76;42.00;101249.93;104915;1306;74943;-83
2022/04/17 07:42:22;;;;;;;;;;;;;;;;;;;;;
2022/04/17 07:44:59;;;;;;;;;;;;;;;19.76;41.90;101249.02;104520;1306;60628;-81
2022/04/17 07:47:35;;;;;;;;;;;;;;;19.76;41.91;101250.46;104886;1306;72511;-87
2022/04/17 07:50:31;;;;;;;;;;;;;;;19.76;41.94;101250.66;104773;1306;75174;-80
2022/04/17 07:53:21;;;;;;;;;;;;;;;19.75;41.98;101244.97;104667;1307;60389;-84
2022/04/17 07:56:05;;;;;;;;;;;;;;;19.75;42.06;101242.29;104890;1304;60486;-83
2022/04/17 07:58:54;;;;;;;;;;;;;;;19.75;41.90;101243.55;104699;1306;73671;-82
2022/04/17 08:01:43;;;;;;;;;;;;;;;;;;;;;
2022/04/17 08:04:23;;;;;;;;;;;;;;;19.74;41.94;101243.78;104771;1306;60491;-84
2022/04/17 08:07:02;;;;;;;;;;;;;;;19.74;41.88;101235.77;104815;1305;61000;-85
2022/04/17 08:09:56;;;;;;;;;;;;;;;19.74;42.07;101236.84;104281;1313;71485;-83
2022/04/17 08:12:52;;;;;;;;;;;;;;;19.73;41.87;101234.02;104268;1313;75070;-85
2022/04/17 08:15:36;;;;;;;;;;;;;;;19.73;42.02;101233.86;104294;1313;60612;-82
2022/04/17 08:18:20;;;;;;;;;;;;;;;19.73;41.89;101215.27;104298;1313;61039;-88
2022/04/17 08:21:02;;;;;;;;;;;;;;;19.73;41.82;101217.27;104317;1313;72833;-81
2022/04/17 08:23:37;;;;;;;;;;;;;;;19.73;41.87;101219.41;104261;1313;74941;-85
2022/04/17 08:26:28;;;;;;;;;;;;;;;19.72;41.75;101215.70;104255;1313;60539;-84
2022/04/17 08:29:10;;;;;;;;;;;;;;;19.72;41.91;101213.21;104054;1318;60998;-80
2022/04/17 08:32:19;;;;;;;;;;;;;;;19.71;41.77;101206.64;103860;1318;71548;-83
2022/04/17 08:35:14;;;;;;;;;;;;;;;19.71;41.76;101208.96;104034;1316;74964;-83
2022/04/17 08:37:59;;;;;;;;;;;;;;;;;;;;;
2022/04/17 08:40:34;;;;;;;;;;;;;;;19.71;41.82;101201.15;103822;1318;61310;-85
2022/04/17 08:43:14;;;;;;;;;;;;;;;19.70;41.67;101202.58;104114;1316;72116;-83
2022/04/17 08:46:00;;;;;;;;;;;;;;;19.71;41.69;101215.42;103897;1318;75328;-81
2022/04/17 08:48:55;;;;;;;;;;;;;;;19.70;41.75;101206.71;104408;1312;61919;-87
2022/04/17 08:51:47;;;;;;;;;;;;;;;19.70;41.86;101214.24;104117;1316;60362;-84
2022/04/17 08:54:43;;;;;;;;;;;;;;;19.69;41.81;101212.66;103925;1318;72915;-82
2022/04/17 08:57:20;;;;;;;;;;;;;;;19.69;41.81;101214.81;104020;1318;74203;-80
2022/04/17 09:00:13;;;;;;;;;;;;;;;19.69;41.72;101215.92;104029;1318;61407;-83
2022/04/17 09:02:50;;;;;;;;;;;;;;;19.68;41.78;101217.70;103945;1316;60622;-83
2022/04/17 09:05:35;;;;;;;;;;;;;;;19.68;41.80;101220.42;104113;1316;72625;-87
2022/04/17 09:08:40;;;;;;;;;;;;;;;19.67;41.74;101209.72;104322;1313;74875;-84
2022/04/17 09:11:12;;;;;;;;;;;;;;;19.67;41.68;101214.37;104184;1315;60624;-81
2022/04/17 09:14:13;;;;;;;;;;;;;;;19.67;41.72;101218.84;104131;1315;60403;-81
2022/04/17 09:17:30;;;;;;;;;;;;;;;19.67;41.77;101223.30;104090;1316;71577;-87
2022/04/17 09:20:17;;;;;;;;;;;;;;;19.66;41.76;101215.85;104196;1314;75092;-82
2022/04/17 09:26:15;;;;;;;;;;;;;;;;;;;;;
2022/04/17 09:29:04;;;;;;;;;;;;;;;19.65;41.72;101214.68;103894;1315;73790;-85
2022/04/17 09:32:02;;;;;;;;;;;;;;;19.65;41.73;101212.39;104290;1312;74124;-87
2022/04/17 09:34:52;;;;;;;;;;;;;;;19.65;41.68;101207.21;104320;1313;60463;-85
2022/04/17 09:37:37;;;;;;;;;;;;;;;19.64;41.74;101206.53;104285;1315;61500;-87
2022/04/17 09:40:17;;;;;;;;;;;;;;;;;;;;;
2022/04/17 09:42:45;;;;;;;;;;;;;;;19.63;41.76;101211.92;104099;1318;74120;-83
2022/04/17 09:45:14;;;;;;;;;;;;;;;19.64;41.71;101216.73;103915;1318;60505;-79
2022/04/17 09:48:04;;;;;;;;;;;;;;;19.63;41.63;101223.92;104109;1315;60566;-82
2022/04/17 09:51:10;;;;;;;;;;;;;;;19.63;41.57;101225.02;103906;1316;74214;-82
2022/04/17 09:54:00;;;;;;;;;;;;;;;19.63;41.68;101224.48;103942;1316;74056;-82
2022/04/17 09:56:40;;;;;;;;;;;;;;;19.62;41.51;101227.73;104101;1316;61105;-84
2022/04/17 09:59:42;;;;;;;;;;;;;;;19.62;41.63;101221.81;104069;1316;60470;-85
2022/04/17 10:02:16;;;;;;;;;;;;;;;19.62;41.53;101221.84;104069;1316;72303;-86
2022/04/17 10:05:22;;;;;;;;;;;;;;;19.61;41.57;101222.60;104549;1309;73186;-85
2022/04/17 10:08:28;;;;;;;;;;;;;;;19.61;41.76;101228.14;103877;1316;61023;-80
2022/04/17 10:10:59;;;;;;;;;;;;;;;19.61;41.52;101233.13;104112;1316;60672;-85
2022/04/17 10:13:33;;;;;;;;;;;;;;;19.60;41.70;101233.15;103994;1315;73910;-84
2022/04/17 10:16:48;;;;;;;;;;;;;;;19.60;41.65;101237.61;104115;1316;73341;-85
2022/04/17 10:19:41;;;;;;;;;;;;;;;;;;;;;
2022/04/17 10:22:36;;;;;;;;;;;;;;;19.60;41.59;101229.95;104310;1315;61611;-85
2022/04/17 10:25:25;;;;;;;;;;;;;;;19.60;41.49;101228.36;103488;1320;72887;-83
2022/04/17 10:28:11;;;;;;;;;;;;;;;19.60;41.65;101235.33;103398;1320;74969;-82
2022/04/17 10:31:25;;;;;;;;;;;;;;;19.59;41.59;101242.84;102264;1335;60422;-82
2022/04/17 10:34:26;;;;;;;;;;;;;;;19.60;41.63;101234.27;102182;1334;60491;-84
2022/04/17 10:37:20;;;;;;;;;;;;;;;;;;;;;
2022/04/17 10:40:23;;;;;;;;;;;;;;;19.59;41.58;101232.86;101961;1338;74823;-83
2022/04/17 10:43:18;;;;;;;;;;;;;;;;;;;;;
2022/04/17 10:46:20;;;;;;;;;;;;;;;19.59;41.61;101229.31;102398;1332;60712;-82
2022/04/17 10:49:32;;;;;;;;;;;;;;;;;;;;;
2022/04/17 10:52:13;;;;;;;;;;;;;;;;;;;;;
2022/04/17 10:54:55;;;;;;;;;;;;;;;19.58;41.58;101226.86;102078;1336;62253;-86
2022/04/17 10:57:41;;;;;;;;;;;;;;;19.58;41.55;101224.36;102000;1338;61492;-84
2022/04/17 11:00:45;;;;;;;;;;;;;;;19.58;41.54;101227.58;102063;1338;73898;-81
2022/04/17 11:03:35;;;;;;;;;;;;;;;19.58;41.48;101221.70;101673;1345;72745;-80
2022/04/17 11:06:27;;;;;;;;;;;;;;;19.57;41.52;101212.80;101683;1345;60769;-84
2022/04/17 11:09:30;;;;;;;;;;;;;;;19.57;41.48;101203.19;102045;1335;61769;-84
2022/04/17 11:12:20;;;;;;;;;;;;;;;;;;;;;
2022/04/17 11:15:19;;;;;;;;;;;;;;;19.57;41.50;101195.33;102406;1330;75485;-89
2022/04/17 11:18:06;;;;;;;;;;;;;;;19.56;41.54;101188.05;102375;1331;61214;-83
2022/04/17 11:20:38;;;;;;;;;;;;;;;19.56;41.46;101196.98;102578;1331;60966;-82
2022/04/17 11:23:34;;;;;;;;;;;;;;;19.56;41.52;101175.03;102359;1331;72924;-85
2022/04/17 11:26:07;;;;;;;;;;;;;;;19.55;41.39;101174.91;102949;1322;74532;-83
2022/04/17 11:28:53;;;;;;;;;;;;;;;;;;;;;
2022/04/17 11:31:40;;;;;;;;;;;;;;;19.55;41.40;101174.55;103253;1322;60301;-82
2022/04/17 11:34:52;;;;;;;;;;;;;;;19.55;41.32;101171.70;103751;1314;71637;-85
2022/04/17 11:37:29;;;;;;;;;;;;;;;19.55;41.49;101163.89;104165;1314;73972;-85
2022/04/17 11:40:44;;;;;;;;;;;;;;;19.54;41.29;101171.92;104150;1309;61188;-86
2022/04/17 11:43:22;;;;;;;;;;;;;;;19.54;41.42;101162.10;104718;1306;60680;-84
2022/04/17 11:46:19;;;;;;;;;;;;;;;19.54;41.41;101156.92;104743;1306;72748;-82
2022/04/17 11:49:04;;;;;;;;;;;;;;;19.54;41.40;101148.20;104727;1306;74114;-88
2022/04/17 11:51:29;;;;;;;;;;;;;;;19.54;41.22;101140.88;104732;1306;61695;-85
2022/04/17 11:54:53;;;;;;;;;;;;;;;19.54;41.43;101139.28;104089;1314;61782;-86
2022/04/17 11:57:37;;;;;;;;;;;;;;;19.53;41.21;101136.45;103329;1323;73777;-79
2022/04/17 12:00:12;;;;;;;;;;;;;;;;;;;;;
2022/04/17 12:03:09;;;;;;;;;;;;;;;19.54;41.40;101141.26;102717;1325;61268;-83
2022/04/17 12:06:09;;;;;;;;;;;;;;;19.53;41.39;101139.86;102732;1326;60355;-84
2022/04/17 12:09:01;;;;;;;;;;;;;;;19.53;41.39;101130.95;102741;1326;72984;-88
2022/04/17 12:11:26;;;;;;;;;;;;;;;19.53;41.36;101122.38;102483;1331;73878;-87
2022/04/17 12:14:32;;;;;;;;;;;;;;;19.52;41.32;101119.19;102449;1332;61417;-82
2022/04/17 12:17:08;;;;;;;;;;;;;;;19.52;41.34;101114.21;102501;1332;60633;-85
2022/04/17 12:20:03;;;;;;;;;;;;;;;19.52;41.32;101122.26;102487;1332;72793;-82
2022/04/17 12:22:58;;;;;;;;;;;;;;;19.52;41.39;101116.69;101940;1338;73887;-83
2022/04/17 12:26:03;;;;;;;;;;;;;;;19.52;41.37;101120.29;101994;1338;60389;-83
2022/04/17 12:29:14;;;;;;;;;;;;;;;19.52;41.38;101120.30;101963;1338;60748;-84
2022/04/17 12:31:38;;;;;;;;;;;;;;;19.52;41.39;101119.58;102198;1325;73997;-87
2022/04/17 12:34:26;;;;;;;;;;;;;;;;;;;;;
2022/04/17 12:37:42;;;;;;;;;;;;;;;19.51;41.32;101112.64;103446;1320;61192;-86
2022/04/17 12:40:51;;;;;;;;;;;;;;;19.51;41.37;101116.23;103519;1320;61467;-84
2022/04/17 12:43:39;;;;;;;;;;;;;;;19.51;41.28;101107.85;103524;1320;73407;-83
2022/04/17 12:46:17;;;;;;;;;;;;;;;19.51;41.34;101105.36;102845;1323;75176;-84
2022/04/17 12:49:28;;;;;;;;;;;;;;;19.51;41.30;101102.84;103240;1319;61823;-83
2022/04/17 12:52:16;;;;;;;;;;;;;;;19.51;41.38;101101.05;103614;1319;60758;-82
2022/04/17 12:55:05;;;;;;;;;;;;;;;19.50;41.21;101100.20;103606;1319;74210;-82
2022/04/17 12:57:56;;;;;;;;;;;;;;;19.50;41.35;101092.36;103630;1319;73058;-84
2022/04/17 13:00:31;;;;;;;;;;;;;;;19.50;41.25;101085.21;104033;1315;60605;-80
2022/04/17 13:03:38;;;;;;;;;;;;;;;19.50;41.37;101083.61;104403;1312;60423;-81
2022/04/17 13:06:24;;;;;;;;;;;;;;;19.49;41.45;101074.04;103566;1319;72776;-83
2022/04/17 13:12:17;;;;;;;;;;;;;;;19.50;41.25;101065.98;102772;1329;60447;-83
2022/04/17 13:15:15;;;;;;;;;;;;;;;;;;;;;
2022/04/17 13:18:01;;;;;;;;;;;;;;;19.49;41.35;101056.95;102633;1329;72882;-84
2022/04/17 13:21:03;;;;;;;;;;;;;;;19.49;41.34;101068.18;102634;1329;75590;-83
2022/04/17 13:27:00;;;;;;;;;;;;;;;19.48;41.39;101059.30;102578;1332;61849;-83
2022/04/17 13:29:50;;;;;;;;;;;;;;;;;;;;;
2022/04/17 13:32:36;;;;;;;;;;;;;;;19.48;41.32;101062.54;102512;1332;73520;-84
2022/04/17 13:35:40;;;;;;;;;;;;;;;19.48;41.16;101066.98;102568;1332;61278;-85
2022/04/17 13:38:22;;;;;;;;;;;;;;;19.48;41.37;101056.64;102563;1332;60634;-83
2022/04/17 13:41:19;;;;;;;;;;;;;;;;;;;;;
2022/04/17 13:43:54;;;;;;;;;;;;;;;19.47;41.37;101056.33;103001;1323;75443;-83
2022/04/17 13:46:39;;;;;;;;;;;;;;;;;;;;;
2022/04/17 13:49:36;;;;;;;;;;;;;;;19.47;41.32;101051.19;103137;1321;60404;-83
2022/04/17 13:52:13;;;;;;;;;;;;;;;19.47;41.35;101049.73;103394;1322;74064;-80
2022/04/17 13:55:06;;;;;;;;;;;;;;;;;;;;;
2022/04/17 13:58:19;;;;;;;;;;;;;;;19.46;41.32;101042.27;103513;1320;60622;-87
2022/04/17 14:00:59;;;;;;;;;;;;;;;;;;;;;
2022/04/17 14:03:56;;;;;;;;;;;;;;;;;;;;;
2022/04/17 14:06:49;;;;;;;;;;;;;;;19.46;41.25;101031.39;104049;1315;74854;-84
2022/04/17 14:09:17;;;;;;;;;;;;;;;19.46;41.20;101032.98;104230;1314;60728;-85
2022/04/17 14:12:29;;;;;;;;;;;;;;;;;;;;;
2022/04/17 14:15:21;;;;;;;;;;;;;;;;;;;;;
2022/04/17 14:17:58;;;;;;;;;;;;;;;;;;;;;
2022/04/17 14:20:44;;;;;;;;;;;;;;;19.46;41.17;101015.00;104272;1314;60754;-83
2022/04/17 14:23:10;;;;;;;;;;;;;;;19.46;41.30;101020.00;104187;1316;60730;-84
2022/04/17 14:25:58;;;;;;;;;;;;;;;;;;;;;
2022/04/17 14:28:57;;;;;;;;;;;;;;;19.45;41.30;101022.01;104268;1315;74001;-85
2022/04/17 14:31:47;;;;;;;;;;;;;;;19.45;41.25;101021.84;104248;1314;61226;-87
2022/04/17 14:34:18;;;;;;;;;;;;;;;19.44;41.19;101025.61;104235;1316;60497;-82
2022/04/17 14:37:24;;;;;;;;;;;;;;;19.45;41.26;101023.46;103256;1322;71566;-86
2022/04/17 14:40:30;;;;;;;;;;;;;;;;;;;;;
2022/04/17 14:43:19;;;;;;;;;;;;;;;;;;;;;
2022/04/17 14:46:05;;;;;;;;;;;;;;;19.44;41.30;101020.98;103878;1318;61876;-86
2022/04/17 14:49:25;;;;;;;;;;;;;;;;;;;;;
2022/04/17 14:52:27;;;;;;;;;;;;;;;19.43;41.34;101019.05;102529;1331;75486;-84
2022/04/17 14:54:47;;;;;;;;;;;;;;;19.43;41.36;101016.55;102531;1332;60652;-86
2022/04/17 14:57:33;;;;;;;;;;;;;;;19.43;41.37;101014.94;102481;1332;60625;-84
2022/04/17 15:00:41;;;;;;;;;;;;;;;19.43;41.36;101011.89;101866;1341;71532;-85
2022/04/17 15:03:33;;;;;;;;;;;;;;;19.43;41.41;101012.45;101884;1341;75759;-82
2022/04/17 15:06:17;;;;;;;;;;;;;;;19.43;41.37;101001.38;101896;1341;60825;-83
2022/04/17 15:09:00;;;;;;;;;;;;;;;19.43;41.32;100999.45;101910;1341;60653;-88
2022/04/17 15:12:03;;;;;;;;;;;;;;;19.42;41.40;100992.51;101881;1341;72744;-83
2022/04/17 15:14:43;;;;;;;;;;;;;;;19.42;41.40;100985.20;102039;1335;74056;-84
2022/04/17 15:17:29;;;;;;;;;;;;;;;19.43;41.42;100985.73;102230;1332;60666;-79
2022/04/17 15:20:14;;;;;;;;;;;;;;;19.42;41.36;100985.56;102480;1332;60421;-85
2022/04/17 15:23:17;;;;;;;;;;;;;;;19.42;41.41;100985.58;102449;1332;73936;-85
2022/04/17 15:25:51;;;;;;;;;;;;;;;19.42;41.42;100979.35;102182;1332;74089;-82
2022/04/17 15:29:17;;;;;;;;;;;;;;;19.42;41.39;100979.15;102661;1326;60536;-85
2022/04/17 15:32:13;;;;;;;;;;;;;;;19.42;41.41;100973.80;102832;1325;60567;-85
2022/04/17 15:35:01;;;;;;;;;;;;;;;19.42;41.44;100962.91;102685;1327;72960;-83
2022/04/17 15:37:52;;;;;;;;;;;;;;;19.41;41.39;100962.58;103672;1313;74362;-87
2022/04/17 15:40:59;;;;;;;;;;;;;;;;;;;;;
2022/04/17 15:49:50;;;;;;;;;;;;;;;19.41;41.46;100957.59;104351;1313;75540;-89
2022/04/17 15:53:07;;;;;;;;;;;;;;;;;;;;;
2022/04/17 15:56:03;;;;;;;;;;;;;;;19.42;41.34;100959.35;103876;1318;61535;-84
2022/04/17 15:58:49;;;;;;;;;;;;;;;19.41;41.35;100958.50;104040;1318;72680;-87